Zama, Japan

11:02 AM JST on April 27, 2015 (GMT +0900)
IU6771U42 | | Change Station
CLOSE
Current Station
Personal Weather Station
Location: Machida, Tokyo
Elevation: 232 ft
Nearby Weather Stations

Elev 232 ft 35.52 °N, 139.48 °E | Updated 6 minutes ago

Clear
Clear
78.3 °F
Feels Like 79 °F
N
1.0
Wind Variable Wind from West
Gusts 5.0 mph

Today
High -- | Low -- °F
--% Chance of Precip.
Yesterday
High -- | Low -- °F
Precip. -- in
4:56 AM 6:24 PM
First Quarter, 60% visible
Pressure 30.06 in
Visibility -9999.0 miles
Clouds
Heat Index 79 °F
Dew Point 53 °F
Humidity 42%
Rainfall -999.00 in
Snow Depth Not available.
UV Not available.
Pollen Not available.
Air Quality Not available.
Flu Activity Not available.
METAR RJTF 270100Z 14005KT 100V200 CAVOK 22/10 Q1018

More Conditions Fewer Conditions

Pressure 30.06 in
Visibility -9999.0 miles
Clouds
Heat Index 79 °F
Dew Point 53 °F
Humidity 42%
Rainfall -999.00 in
Snow Depth Not available.
UV Not available.
Pollen Not available.
Air Quality Not available.
Flu Activity Not available.
METAR RJTF 270100Z 14005KT 100V200 CAVOK 22/10 Q1018

More Conditions Fewer Conditions

10-Day Weather Forecast

Almanac

Astronomy

Apr. 27, 2015 Rise Set
Actual Time
Civil Twilight
Nautical Twilight
Astronomical Twilight
Moon
Length of Visible Light
Length of Day
Tomorrow will be .
, % of the Moon is Illuminated

Today's Extremes

Country Highs Country Lows

Community

WunderPhotos

Upload Photos

1,817,204 photos uploaded!

WunderBlogs® & News

Nearby

Air Quality

  Air Quality AQ Index Pollutant
Not available.

Snow Depth

Station Depth Elevation

Earthquake Activity

City Distance Mag. Time & Date
Minimum magnitude displayed is 2.5.

Coastal Water Temperatures

Place Temperature

Stations

Nearby Weather Stations

Station Location Temp. Windchill Dew Point Humidity Wind Precip. Elev Updated Type